createdAt,value
2023-05-25T00:01:50.185Z,101096.03
2023-05-25T00:04:19.625Z,101096.69
2023-05-25T00:06:48.547Z,101100.59
2023-05-25T00:09:16.356Z,101101.81
2023-05-25T00:11:43.815Z,101105.72
2023-05-25T00:14:11.368Z,101099.72
2023-05-25T00:16:40.508Z,101104.56
2023-05-25T00:19:10.578Z,101095.31
2023-05-25T00:21:39.073Z,101098.59
2023-05-25T00:24:08.981Z,101104.72
2023-05-25T00:26:36.635Z,101099.53
2023-05-25T00:29:04.393Z,101101.41
2023-05-25T00:31:32.961Z,101105.53
2023-05-25T00:34:00.739Z,101102.97
2023-05-25T00:36:28.267Z,101106.25
2023-05-25T00:38:55.735Z,101100.28
2023-05-25T00:41:26.044Z,101102.97
2023-05-25T00:43:53.489Z,101092.00
2023-05-25T00:46:21.136Z,101091.84
2023-05-25T00:48:48.672Z,101075.53
2023-05-25T00:51:16.896Z,101093.38
2023-05-25T00:53:44.485Z,101085.31
2023-05-25T00:56:16.196Z,101090.53
2023-05-25T00:58:47.526Z,101088.78
2023-05-25T01:01:16.338Z,101081.59
2023-05-25T01:03:47.227Z,101098.31
2023-05-25T01:06:16.898Z,101087.09
2023-05-25T01:08:50.971Z,101095.84
2023-05-25T01:11:23.100Z,101097.97
2023-05-25T01:13:54.225Z,101101.41
2023-05-25T01:16:22.000Z,101108.78
2023-05-25T01:18:52.762Z,101106.69
2023-05-25T01:21:27.030Z,101099.81
2023-05-25T01:24:03.655Z,101092.50
2023-05-25T01:26:35.423Z,101091.88
2023-05-25T01:29:03.582Z,101103.53
2023-05-25T01:31:31.296Z,101103.81
2023-05-25T01:33:59.037Z,101117.00
2023-05-25T01:36:27.816Z,101116.41
2023-05-25T01:38:55.549Z,101110.84
2023-05-25T01:41:22.988Z,101103.91
2023-05-25T01:43:50.894Z,101112.19
2023-05-25T01:46:23.517Z,101112.56
2023-05-25T01:48:58.613Z,101111.50
2023-05-25T01:51:37.652Z,101113.72
2023-05-25T01:54:11.135Z,101120.84
2023-05-25T01:56:40.209Z,101122.63
2023-05-25T01:59:09.864Z,101111.47
2023-05-25T02:01:38.411Z,101109.13
2023-05-25T02:04:06.360Z,101101.94
2023-05-25T02:06:36.685Z,101108.19
2023-05-25T02:09:04.471Z,101119.03
2023-05-25T02:11:31.965Z,101111.56
2023-05-25T02:13:59.420Z,101112.47
2023-05-25T02:16:27.870Z,101123.72
2023-05-25T02:18:58.024Z,101117.88
2023-05-25T02:21:25.478Z,101113.44
2023-05-25T02:23:54.914Z,101126.22
2023-05-25T02:26:22.538Z,101133.97
2023-05-25T02:28:49.995Z,101126.91
2023-05-25T02:31:17.514Z,101145.69
2023-05-25T02:33:44.926Z,101141.72
2023-05-25T02:36:12.330Z,101142.31
2023-05-25T02:38:39.843Z,101147.25
2023-05-25T02:41:08.571Z,101143.97
2023-05-25T02:43:37.476Z,101142.16
2023-05-25T02:46:04.918Z,101142.66
2023-05-25T02:48:32.365Z,101142.81
2023-05-25T02:50:59.779Z,101137.97
2023-05-25T02:53:27.285Z,101133.81
2023-05-25T02:55:54.805Z,101133.66
2023-05-25T02:58:23.572Z,101147.88
2023-05-25T03:00:51.576Z,101147.94
2023-05-25T03:03:19.174Z,101140.28
2023-05-25T03:05:47.308Z,101147.13
2023-05-25T03:08:14.755Z,101157.19
2023-05-25T03:10:42.206Z,101151.63
2023-05-25T03:13:09.629Z,101149.28
2023-05-25T03:15:40.147Z,101151.84
2023-05-25T03:18:07.615Z,101157.47
2023-05-25T03:20:35.243Z,101157.75
2023-05-25T03:23:02.770Z,101159.69
2023-05-25T03:25:30.720Z,101160.94
2023-05-25T03:27:58.307Z,101161.16
2023-05-25T03:30:26.047Z,101169.78
2023-05-25T03:32:54.906Z,101169.53
2023-05-25T03:35:22.444Z,101172.28
2023-05-25T03:37:49.860Z,101164.28
2023-05-25T03:40:17.327Z,101176.38
2023-05-25T03:42:44.791Z,101184.63
2023-05-25T03:45:12.488Z,101185.91
2023-05-25T03:47:39.931Z,101187.41
2023-05-25T03:50:09.701Z,101177.28
2023-05-25T03:52:37.155Z,101189.50
2023-05-25T03:55:05.406Z,101192.78
2023-05-25T03:57:32.851Z,101196.28
2023-05-25T04:00:00.427Z,101193.28
2023-05-25T04:02:27.944Z,101199.13
2023-05-25T04:04:57.099Z,101190.50
2023-05-25T04:07:27.387Z,101204.84
2023-05-25T04:09:54.890Z,101198.44
2023-05-25T04:12:22.905Z,101206.50
2023-05-25T04:14:51.104Z,101208.63
2023-05-25T04:17:19.068Z,101210.50
2023-05-25T04:19:46.523Z,101210.38
2023-05-25T04:22:13.974Z,101207.16
2023-05-25T04:24:42.743Z,101205.94
2023-05-25T04:27:10.296Z,101210.16
2023-05-25T04:29:38.225Z,101207.44
2023-05-25T04:32:06.526Z,101201.97
2023-05-25T04:34:33.971Z,101204.97
2023-05-25T04:37:05.117Z,101206.19
2023-05-25T04:39:33.400Z,101206.25
2023-05-25T04:42:04.348Z,101212.53
2023-05-25T04:44:32.140Z,101203.38
2023-05-25T04:47:01.308Z,101207.63
2023-05-25T04:49:29.180Z,101205.66
2023-05-25T04:51:56.627Z,101206.44
2023-05-25T04:54:24.310Z,101211.09
2023-05-25T04:56:51.916Z,101204.47
2023-05-25T04:59:20.908Z,101207.91
2023-05-25T05:01:48.489Z,101194.59
2023-05-25T05:04:17.889Z,101197.78
2023-05-25T05:06:45.315Z,101194.06
2023-05-25T05:09:13.191Z,101203.97
2023-05-25T05:11:40.736Z,101197.00
2023-05-25T05:14:08.216Z,101200.09
2023-05-25T05:16:37.512Z,101199.44
2023-05-25T05:19:05.059Z,101199.69
2023-05-25T05:21:32.519Z,101190.38
2023-05-25T05:23:59.955Z,101195.59
2023-05-25T05:26:27.743Z,101196.28
2023-05-25T05:28:55.207Z,101196.56
2023-05-25T05:31:24.218Z,101196.06
2023-05-25T05:33:53.090Z,101198.25
2023-05-25T05:36:20.595Z,101196.22
2023-05-25T05:38:48.064Z,101188.56
2023-05-25T05:41:15.560Z,101199.25
2023-05-25T05:43:44.108Z,101198.56
2023-05-25T05:46:11.675Z,101202.22
2023-05-25T05:48:39.557Z,101187.03
2023-05-25T05:51:08.413Z,101192.16
2023-05-25T05:53:36.423Z,101203.75
2023-05-25T05:56:04.181Z,101200.63
2023-05-25T05:58:32.395Z,101198.97
2023-05-25T06:01:00.145Z,101209.88
2023-05-25T06:03:28.794Z,101199.72
2023-05-25T06:05:56.378Z,101197.09
2023-05-25T06:08:25.194Z,101206.41
2023-05-25T06:10:52.698Z,101200.47
2023-05-25T06:13:20.787Z,101206.19
2023-05-25T06:15:48.300Z,101200.03
2023-05-25T06:18:16.148Z,101198.84
2023-05-25T06:20:43.793Z,101201.53
2023-05-25T06:23:13.985Z,101205.84
2023-05-25T06:25:42.867Z,101198.31
2023-05-25T06:28:10.554Z,101194.03
2023-05-25T06:30:38.010Z,101197.19
2023-05-25T06:33:05.629Z,101192.03
2023-05-25T06:35:33.150Z,101185.56
2023-05-25T06:38:00.749Z,101193.31
2023-05-25T06:40:28.249Z,101196.34
2023-05-25T06:42:57.012Z,101184.97
2023-05-25T06:45:24.520Z,101191.91
2023-05-25T06:47:51.978Z,101205.19
2023-05-25T06:50:20.138Z,101197.81
2023-05-25T06:52:47.904Z,101197.16
2023-05-25T06:55:15.597Z,101203.34
2023-05-25T06:57:43.693Z,101194.69
2023-05-25T07:00:14.254Z,101194.69
2023-05-25T07:02:41.752Z,101196.94
2023-05-25T07:05:09.731Z,101192.28
2023-05-25T07:07:37.214Z,101193.56
2023-05-25T07:10:06.077Z,101192.34
2023-05-25T07:12:33.584Z,101192.81
2023-05-25T07:15:01.134Z,101192.38
2023-05-25T07:17:31.457Z,101198.19
2023-05-25T07:19:59.146Z,101192.81
2023-05-25T07:22:26.693Z,101186.59
2023-05-25T07:24:54.116Z,101200.13
2023-05-25T07:27:21.560Z,101192.72
2023-05-25T07:29:49.021Z,101189.91
2023-05-25T07:32:16.600Z,101194.06
2023-05-25T07:34:45.468Z,101188.41
2023-05-25T07:37:12.911Z,101172.44
2023-05-25T07:39:41.051Z,101180.53
2023-05-25T07:42:08.525Z,101179.75
2023-05-25T07:44:35.977Z,101175.81
2023-05-25T07:47:03.489Z,101181.13
2023-05-25T07:49:31.058Z,101182.91
2023-05-25T07:51:59.803Z,101186.22
2023-05-25T07:54:27.276Z,101192.50
2023-05-25T07:56:54.758Z,101185.28
2023-05-25T07:59:22.202Z,101186.34
2023-05-25T08:01:49.724Z,101193.56
2023-05-25T08:04:17.303Z,101185.69
2023-05-25T08:06:45.271Z,101198.41
2023-05-25T08:09:14.214Z,101194.69
2023-05-25T08:11:41.674Z,101190.06
2023-05-25T08:14:09.168Z,101187.31
2023-05-25T08:16:36.770Z,101196.59
2023-05-25T08:19:04.291Z,101192.00
2023-05-25T08:21:34.938Z,101181.47
2023-05-25T08:24:04.122Z,101182.34
2023-05-25T08:26:52.279Z,101179.84
2023-05-25T08:29:21.180Z,101202.72
2023-05-25T08:31:49.818Z,101186.72
2023-05-25T08:34:17.583Z,101185.72
2023-05-25T08:36:45.719Z,101195.03
2023-05-25T08:39:13.334Z,101184.44
2023-05-25T08:41:45.730Z,101187.50
2023-05-25T08:44:14.586Z,101183.47
2023-05-25T08:46:42.999Z,101183.34
2023-05-25T08:49:13.728Z,101188.34
2023-05-25T08:51:44.271Z,101193.63
2023-05-25T08:54:14.384Z,101182.19
2023-05-25T08:56:52.086Z,101185.34
2023-05-25T08:59:31.706Z,101180.63
2023-05-25T09:02:07.676Z,101186.28
2023-05-25T09:04:35.835Z,101192.06
2023-05-25T09:07:10.304Z,101191.06
2023-05-25T09:09:39.644Z,101199.03
2023-05-25T09:12:10.015Z,101196.97
2023-05-25T09:14:39.719Z,101188.94
2023-05-25T09:17:07.889Z,101186.22
2023-05-25T09:19:37.202Z,101188.19
2023-05-25T09:22:14.824Z,101187.88
2023-05-25T09:24:44.439Z,101187.72
2023-05-25T09:27:18.295Z,101189.88
2023-05-25T09:29:47.714Z,101193.06
2023-05-25T09:32:16.771Z,101187.09
2023-05-25T09:34:45.006Z,101183.75
2023-05-25T09:37:14.288Z,101195.28
2023-05-25T09:39:43.330Z,101189.44
2023-05-25T09:42:11.292Z,101198.34
2023-05-25T09:44:40.546Z,101194.50
2023-05-25T09:47:08.100Z,101200.25
2023-05-25T09:49:36.499Z,101208.75
2023-05-25T09:52:03.999Z,101207.44
2023-05-25T09:54:31.957Z,101211.56
2023-05-25T09:57:01.492Z,101207.81
2023-05-25T09:59:29.029Z,101201.34
2023-05-25T10:01:59.321Z,101207.97
2023-05-25T10:04:26.925Z,101206.97
2023-05-25T10:06:56.688Z,101207.00
2023-05-25T10:09:26.468Z,101206.84
2023-05-25T10:11:55.922Z,101202.72
2023-05-25T10:14:29.506Z,101204.41
2023-05-25T10:17:00.569Z,101201.44
2023-05-25T10:19:35.149Z,101202.84
2023-05-25T10:22:08.066Z,101203.78
2023-05-25T10:24:39.660Z,101208.75
2023-05-25T10:27:25.661Z,101202.03
2023-05-25T10:29:57.210Z,101197.69
2023-05-25T10:32:27.009Z,101195.72
2023-05-25T10:34:54.868Z,101197.44
2023-05-25T10:37:24.393Z,101190.25
2023-05-25T10:39:53.121Z,101193.66
2023-05-25T10:42:20.634Z,101184.59
2023-05-25T10:44:48.558Z,101191.00
2023-05-25T10:47:17.580Z,101191.31
2023-05-25T10:49:56.744Z,101213.75
2023-05-25T10:52:28.607Z,101204.38
2023-05-25T10:54:57.775Z,101192.69
2023-05-25T10:57:26.429Z,101180.97
2023-05-25T11:00:00.029Z,101185.06
2023-05-25T11:02:30.333Z,101185.53
2023-05-25T11:05:33.400Z,101188.03
2023-05-25T11:08:02.193Z,101176.41
2023-05-25T11:10:59.942Z,101181.31
2023-05-25T11:13:38.077Z,101173.31
2023-05-25T11:16:17.791Z,101174.00
2023-05-25T11:18:47.295Z,101166.19
2023-05-25T11:21:18.740Z,101174.44
2023-05-25T11:23:59.659Z,101156.06
2023-05-25T11:26:29.215Z,101156.03
2023-05-25T11:28:59.653Z,101166.59
2023-05-25T11:31:35.833Z,101160.50
2023-05-25T11:34:06.788Z,101154.66
2023-05-25T11:36:37.173Z,101158.16
2023-05-25T11:39:17.062Z,101157.50
2023-05-25T11:41:51.355Z,101163.81
2023-05-25T11:44:27.312Z,101160.84
2023-05-25T11:46:57.102Z,101154.16
2023-05-25T11:49:25.488Z,101152.94
2023-05-25T11:51:54.736Z,101154.28
2023-05-25T11:54:23.895Z,101148.19
2023-05-25T11:56:51.524Z,101147.50
2023-05-25T11:59:19.124Z,101146.03
2023-05-25T12:01:56.583Z,101144.94
2023-05-25T12:04:24.531Z,101127.75
2023-05-25T12:06:52.646Z,101135.56
2023-05-25T12:09:23.000Z,101148.72
2023-05-25T12:11:51.141Z,101143.03
2023-05-25T12:14:18.900Z,101130.69
2023-05-25T12:16:46.732Z,101141.25
2023-05-25T12:19:14.793Z,101123.56
2023-05-25T12:21:42.854Z,101124.16
2023-05-25T12:24:12.685Z,101115.19
2023-05-25T12:26:49.468Z,101125.25
2023-05-25T12:29:17.040Z,101126.03
2023-05-25T12:31:44.717Z,101120.59
2023-05-25T12:34:13.652Z,101122.16
2023-05-25T12:36:43.855Z,101104.50
2023-05-25T12:39:16.862Z,101110.19
2023-05-25T12:41:45.828Z,101099.72
2023-05-25T12:44:36.275Z,101097.88
2023-05-25T12:47:14.405Z,101093.41
2023-05-25T12:49:43.729Z,101100.09
2023-05-25T12:52:12.085Z,101096.84
2023-05-25T12:54:44.970Z,101098.94
2023-05-25T12:57:14.715Z,101101.09
2023-05-25T12:59:44.995Z,101098.63
2023-05-25T13:02:13.877Z,101089.66
2023-05-25T13:04:42.715Z,101089.22
2023-05-25T13:07:10.457Z,101096.88
2023-05-25T13:09:38.429Z,101085.13
2023-05-25T13:12:06.988Z,101088.84
2023-05-25T13:14:34.444Z,101088.00
2023-05-25T13:17:03.230Z,101091.03
2023-05-25T13:19:30.854Z,101095.44
2023-05-25T13:21:58.299Z,101091.41
2023-05-25T13:24:25.757Z,101081.22
2023-05-25T13:26:53.250Z,101079.81
2023-05-25T13:29:20.734Z,101079.00
2023-05-25T13:31:48.356Z,101080.97
2023-05-25T13:34:17.625Z,101093.31
2023-05-25T13:36:45.148Z,101083.25
2023-05-25T13:39:13.782Z,101078.81
2023-05-25T13:41:42.569Z,101078.13
2023-05-25T13:44:11.089Z,101073.22
2023-05-25T13:46:38.718Z,101068.44
2023-05-25T13:49:06.408Z,101062.06
2023-05-25T13:51:35.764Z,101056.28
2023-05-25T13:54:04.561Z,101059.06
2023-05-25T13:56:32.314Z,101052.13
2023-05-25T13:58:59.824Z,101054.63
2023-05-25T14:01:28.517Z,101048.25
2023-05-25T14:03:56.698Z,101044.84
2023-05-25T14:06:24.960Z,101048.91
2023-05-25T14:08:53.904Z,101046.16
2023-05-25T14:11:28.187Z,101059.59
2023-05-25T14:13:56.711Z,101047.75
2023-05-25T14:16:24.164Z,101038.31
2023-05-25T14:18:51.728Z,101046.78
2023-05-25T14:21:19.227Z,101043.31
2023-05-25T14:23:46.643Z,101042.50
2023-05-25T14:26:15.449Z,101048.25
2023-05-25T14:28:42.883Z,101046.72
2023-05-25T14:31:12.273Z,101042.69
2023-05-25T14:33:40.785Z,101049.84
2023-05-25T14:36:10.242Z,101037.81
2023-05-25T14:38:37.688Z,101041.78
2023-05-25T14:41:05.396Z,101032.78
2023-05-25T14:43:34.973Z,101028.66
2023-05-25T14:46:02.410Z,101036.00
2023-05-25T14:48:29.928Z,101035.59
2023-05-25T14:50:58.721Z,101031.06
2023-05-25T14:53:26.435Z,101045.81
2023-05-25T14:55:53.854Z,101023.41
2023-05-25T14:58:21.456Z,101023.41
2023-05-25T15:00:50.562Z,101037.94
2023-05-25T15:03:18.962Z,101037.94
2023-05-25T15:05:46.851Z,101033.53
2023-05-25T15:08:14.358Z,101036.19
2023-05-25T15:10:41.851Z,101035.13
2023-05-25T15:13:10.001Z,101032.66
2023-05-25T15:15:38.775Z,101032.06
2023-05-25T15:18:07.817Z,101028.69
2023-05-25T15:20:35.430Z,101029.47
2023-05-25T15:23:02.915Z,101023.13
2023-05-25T15:25:35.492Z,101030.03
2023-05-25T15:28:03.401Z,101037.53
2023-05-25T15:30:30.849Z,101052.50
2023-05-25T15:32:58.736Z,101035.22
2023-05-25T15:35:32.164Z,101030.53
2023-05-25T15:37:59.655Z,101028.47
2023-05-25T15:40:27.117Z,101029.97
2023-05-25T15:42:54.626Z,101038.75
2023-05-25T15:45:22.035Z,101025.72
2023-05-25T15:47:50.502Z,101020.53
2023-05-25T15:50:18.328Z,101022.63
2023-05-25T15:52:47.168Z,101023.88
2023-05-25T15:55:14.676Z,101018.69
2023-05-25T15:57:42.083Z,101012.22
2023-05-25T16:00:11.638Z,101003.59
2023-05-25T16:02:39.261Z,101000.84
2023-05-25T16:05:07.233Z,101002.91
2023-05-25T16:07:34.686Z,101011.84
2023-05-25T16:10:03.576Z,101008.03
2023-05-25T16:12:31.072Z,100994.78
2023-05-25T16:14:58.502Z,100995.16
2023-05-25T16:17:26.396Z,100992.72
2023-05-25T16:19:53.899Z,100998.81
2023-05-25T16:22:21.387Z,100991.03
2023-05-25T16:24:48.844Z,100987.78
2023-05-25T16:27:17.718Z,100981.66
2023-05-25T16:29:45.549Z,100991.09
2023-05-25T16:32:13.032Z,100995.03
2023-05-25T16:34:40.508Z,100995.03
2023-05-25T16:37:07.923Z,100989.31
2023-05-25T16:39:35.455Z,100995.03
2023-05-25T16:42:03.477Z,100992.06
2023-05-25T16:44:32.194Z,100996.13
2023-05-25T16:46:59.625Z,100996.59
2023-05-25T16:49:27.118Z,100994.16
2023-05-25T16:51:54.571Z,100990.88
2023-05-25T16:54:22.267Z,100992.09
2023-05-25T16:56:49.708Z,100990.41
2023-05-25T16:59:17.166Z,100982.13
2023-05-25T17:01:46.031Z,100981.66
2023-05-25T17:04:13.595Z,100980.53
2023-05-25T17:06:41.023Z,100984.38
2023-05-25T17:09:08.644Z,100982.16
2023-05-25T17:11:36.096Z,100974.47
2023-05-25T17:14:03.568Z,100990.88
2023-05-25T17:16:31.166Z,100990.22
2023-05-25T17:18:59.919Z,100990.03
2023-05-25T17:21:30.988Z,100984.94
2023-05-25T17:23:58.397Z,100995.25
2023-05-25T17:26:25.807Z,100994.50
2023-05-25T17:28:53.207Z,100994.38
2023-05-25T17:31:20.675Z,100994.41
2023-05-25T17:33:48.137Z,101002.22
2023-05-25T17:36:16.994Z,101003.47
2023-05-25T17:38:44.670Z,101000.25
2023-05-25T17:41:12.114Z,100998.19
2023-05-25T17:43:39.551Z,100998.13
2023-05-25T17:46:07.449Z,101000.84
2023-05-25T17:48:35.307Z,100994.44
2023-05-25T17:51:03.127Z,100996.50
2023-05-25T17:53:31.890Z,101002.59
2023-05-25T17:55:59.320Z,101001.22
2023-05-25T17:58:26.821Z,101006.97
2023-05-25T18:00:54.377Z,101002.13
2023-05-25T18:03:22.091Z,101010.94
2023-05-25T18:05:49.534Z,101005.06
2023-05-25T18:08:16.975Z,101002.00
2023-05-25T18:10:46.069Z,101001.34
2023-05-25T18:13:13.557Z,101006.22
2023-05-25T18:15:41.024Z,101014.94
2023-05-25T18:18:12.037Z,101012.44
2023-05-25T18:20:39.696Z,101010.09
2023-05-25T18:23:08.265Z,101014.94
2023-05-25T18:25:35.935Z,101008.38
2023-05-25T18:28:04.750Z,101016.84
2023-05-25T18:30:32.192Z,101016.84
2023-05-25T18:32:59.923Z,101030.53
2023-05-25T18:35:31.125Z,101029.63
2023-05-25T18:37:58.567Z,101021.31
2023-05-25T18:40:25.994Z,101019.47
2023-05-25T18:42:53.450Z,101017.13
2023-05-25T18:45:22.433Z,101025.19
2023-05-25T18:47:50.154Z,101028.66
2023-05-25T18:50:17.633Z,101026.63
2023-05-25T18:52:46.789Z,101027.38
2023-05-25T18:55:14.215Z,101035.72
2023-05-25T18:57:41.646Z,101032.16
2023-05-25T19:00:10.564Z,101034.09
2023-05-25T19:02:39.368Z,101038.19
2023-05-25T19:05:07.967Z,101039.50
2023-05-25T19:07:50.767Z,101052.31
2023-05-25T19:10:25.711Z,101058.00
2023-05-25T19:12:53.167Z,101051.13
2023-05-25T19:15:23.975Z,101057.44
2023-05-25T19:17:52.827Z,101056.59
2023-05-25T19:20:20.506Z,101056.25
2023-05-25T19:22:48.010Z,101067.34
2023-05-25T19:25:15.536Z,101067.34
2023-05-25T19:27:42.958Z,101075.78
2023-05-25T19:30:11.179Z,101074.34
2023-05-25T19:32:38.854Z,101079.84
2023-05-25T19:35:08.226Z,101074.50
2023-05-25T19:37:37.589Z,101077.47
2023-05-25T19:40:06.320Z,101086.91
2023-05-25T19:42:34.124Z,101084.72
2023-05-25T19:45:01.656Z,101088.63
2023-05-25T19:47:29.473Z,101092.38
2023-05-25T19:49:56.939Z,101090.97
2023-05-25T19:52:25.789Z,101094.38
2023-05-25T19:54:53.251Z,101089.53
2023-05-25T19:57:20.978Z,101097.03
2023-05-25T19:59:49.994Z,101100.53
2023-05-25T20:02:17.635Z,101107.63
2023-05-25T20:04:45.086Z,101104.09
2023-05-25T20:07:12.538Z,101112.63
2023-05-25T20:09:42.884Z,101106.38
2023-05-25T20:12:10.985Z,101113.63
2023-05-25T20:14:38.547Z,101120.47
2023-05-25T20:17:06.271Z,101116.81
2023-05-25T20:19:33.775Z,101115.94
2023-05-25T20:22:02.409Z,101131.44
2023-05-25T20:24:29.852Z,101131.22
2023-05-25T20:26:59.760Z,101135.34
2023-05-25T20:29:27.455Z,101130.56
2023-05-25T20:31:54.884Z,101136.47
2023-05-25T20:34:22.403Z,101133.97
2023-05-25T20:36:50.156Z,101146.16
2023-05-25T20:39:17.569Z,101144.97
2023-05-25T20:41:45.045Z,101141.13
2023-05-25T20:44:14.097Z,101141.88
2023-05-25T20:46:41.788Z,101139.75
2023-05-25T20:49:09.597Z,101135.78
2023-05-25T20:51:37.009Z,101138.38
2023-05-25T20:54:04.637Z,101144.38
2023-05-25T20:56:32.105Z,101138.41
2023-05-25T20:58:59.535Z,101139.72
2023-05-25T21:01:29.281Z,101143.75
2023-05-25T21:03:56.932Z,101148.56
2023-05-25T21:06:24.463Z,101151.13
2023-05-25T21:08:52.918Z,101148.69
2023-05-25T21:11:20.473Z,101161.69
2023-05-25T21:13:48.713Z,101158.50
2023-05-25T21:16:16.321Z,101160.38
2023-05-25T21:18:45.100Z,101168.13
2023-05-25T21:21:12.616Z,101163.56
2023-05-25T21:23:40.089Z,101176.06
2023-05-25T21:26:07.955Z,101175.84
2023-05-25T21:28:35.359Z,101180.53
2023-05-25T21:31:02.820Z,101170.13
2023-05-25T21:33:35.452Z,101176.22
2023-05-25T21:36:04.807Z,101172.13
2023-05-25T21:38:32.225Z,101175.59
2023-05-25T21:40:59.891Z,101180.91
2023-05-25T21:43:27.937Z,101180.19
2023-05-25T21:45:55.421Z,101183.81
2023-05-25T21:48:22.848Z,101181.94
2023-05-25T21:50:51.141Z,101186.38
2023-05-25T21:53:20.528Z,101193.09
2023-05-25T21:55:48.161Z,101194.03
2023-05-25T21:58:16.827Z,101195.75
2023-05-25T22:00:44.308Z,101198.09
2023-05-25T22:03:11.960Z,101196.78
2023-05-25T22:05:39.556Z,101191.19
2023-05-25T22:08:07.517Z,101191.53
2023-05-25T22:10:36.510Z,101205.78
2023-05-25T22:13:04.998Z,101196.19
2023-05-25T22:15:32.513Z,101200.63
2023-05-25T22:18:00.301Z,101202.38
2023-05-25T22:20:27.879Z,101203.88
2023-05-25T22:22:55.440Z,101205.38
2023-05-25T22:25:22.971Z,101206.31
2023-05-25T22:27:51.735Z,101201.72
2023-05-25T22:30:19.312Z,101209.13
2023-05-25T22:32:46.783Z,101203.28
2023-05-25T22:35:14.221Z,101202.16
2023-05-25T22:37:41.817Z,101213.09
2023-05-25T22:40:10.327Z,101214.59
2023-05-25T22:42:37.767Z,101216.78
2023-05-25T22:45:07.946Z,101220.91
2023-05-25T22:47:35.726Z,101225.69
2023-05-25T22:50:03.280Z,101216.50
2023-05-25T22:52:30.690Z,101220.50
2023-05-25T22:54:58.110Z,101223.63
2023-05-25T22:57:25.538Z,101220.41
2023-05-25T22:59:52.953Z,101231.16
2023-05-25T23:02:21.806Z,101224.81
2023-05-25T23:04:49.282Z,101224.63
2023-05-25T23:07:16.703Z,101227.78
2023-05-25T23:09:44.152Z,101226.47
2023-05-25T23:12:11.630Z,101228.66
2023-05-25T23:14:39.093Z,101232.91
2023-05-25T23:17:06.546Z,101222.56
2023-05-25T23:19:35.633Z,101227.22
2023-05-25T23:22:03.042Z,101225.88
2023-05-25T23:24:30.601Z,101233.31
2023-05-25T23:26:58.082Z,101226.44
2023-05-25T23:29:25.521Z,101235.25
2023-05-25T23:31:52.986Z,101226.31
2023-05-25T23:34:20.664Z,101231.91
2023-05-25T23:36:49.435Z,101227.66
2023-05-25T23:39:16.869Z,101226.84
2023-05-25T23:41:44.261Z,101237.06
2023-05-25T23:44:11.667Z,101226.41
2023-05-25T23:46:39.135Z,101232.00
2023-05-25T23:49:06.560Z,101223.59
2023-05-25T23:51:34.017Z,101236.00
2023-05-25T23:54:02.787Z,101235.19
2023-05-25T23:56:32.235Z,101239.78
2023-05-25T23:58:59.734Z,101238.13
